<?xml version="1.0" encoding="UTF-8"?>
<gpx version="1.1" creator="2bulu-scraper" xmlns="http://www.topografix.com/GPX/1/1">
  <metadata><name>峨眉山北线上下</name><desc>source: 2bulu.com trackId=87898799; exported 2026-09-01T16:04:24.069Z</desc>
    <bounds minlat="29.522094" minlon="103.326798" maxlat="29.583105" maxlon="103.449125"/>
    <link href="https://www.2bulu.com/track/t-7cyiG%252F4jHMvp%252FR2KBg5Tzw%253D%253D.htm"><text>2bulu 源页面</text></link>
  </metadata>
  <wpt lat="29.565605" lon="103.434028"><ele>590</ele><name></name></wpt>
  <wpt lat="29.565358" lon="103.421263"><ele>834</ele><name></name></wpt>
  <wpt lat="29.572338" lon="103.40158"><ele>509</ele><name></name></wpt>
  <wpt lat="29.577628" lon="103.371087"><ele>1465</ele><name></name></wpt>
  <wpt lat="29.577467" lon="103.370955"><ele>1463</ele><name></name></wpt>
  <wpt lat="29.577638" lon="103.37088"><ele>1463</ele><name></name></wpt>
  <wpt lat="29.574778" lon="103.363792"><ele>1574</ele><name></name></wpt>
  <wpt lat="29.574497" lon="103.36363"><ele>1466</ele><name></name></wpt>
  <wpt lat="29.568275" lon="103.359728"><ele>1735</ele><name></name></wpt>
  <wpt lat="29.5642" lon="103.356475"><ele>1907</ele><name></name></wpt>
  <wpt lat="29.5624" lon="103.346763"><ele>1819</ele><name></name></wpt>
  <wpt lat="29.560678" lon="103.344955"><ele>1851</ele><name></name></wpt>
  <wpt lat="29.558737" lon="103.344337"><ele>2058</ele><name></name></wpt>
  <wpt lat="29.558705" lon="103.344208"><ele>2053</ele><name></name></wpt>
  <wpt lat="29.558467" lon="103.344138"><ele>2073</ele><name></name></wpt>
  <wpt lat="29.542328" lon="103.332078"><ele>2426</ele><name></name></wpt>
  <wpt lat="29.52367" lon="103.336355"><ele>3061</ele><name></name></wpt>
  <wpt lat="29.522647" lon="103.334755"><ele>3052</ele><name></name></wpt>
  <wpt lat="29.523262" lon="103.334795"><ele>3030</ele><name></name></wpt>
  <wpt lat="29.532197" lon="103.330505"><ele>2700</ele><name></name></wpt>
  <wpt lat="29.542262" lon="103.332153"><ele>2428</ele><name></name></wpt>
  <wpt lat="29.542263" lon="103.332197"><ele>2424</ele><name></name></wpt>
  <wpt lat="29.570547" lon="103.44152"><ele>542</ele><name></name></wpt>
  <trk><name>峨眉山北线上下</name>
      <trkseg>
        <trkpt lat="29.569434" lon="103.449125"><ele>597</ele><time>2026-08-02T14:44:20.000Z</time></trkpt>
        <trkpt lat="29.569426" lon="103.448501"><ele>599</ele><time>2026-08-02T14:45:06.000Z</time></trkpt>
        <trkpt lat="29.569552" lon="103.44837"><ele>599</ele><time>2026-08-02T14:45:20.000Z</time></trkpt>
        <trkpt lat="29.56862" lon="103.444316"><ele>609</ele><time>2026-08-02T14:49:40.000Z</time></trkpt>
        <trkpt lat="29.569478" lon="103.443755"><ele>614</ele><time>2026-08-02T14:51:06.000Z</time></trkpt>
        <trkpt lat="29.570405" lon="103.443687"><ele>629</ele><time>2026-08-02T14:53:55.000Z</time></trkpt>
        <trkpt lat="29.569479" lon="103.44376"><ele>614</ele><time>2026-08-02T14:55:11.000Z</time></trkpt>
        <trkpt lat="29.569403" lon="103.442904"><ele>615</ele><time>2026-08-02T14:56:07.000Z</time></trkpt>
        <trkpt lat="29.569676" lon="103.442862"><ele>618</ele><time>2026-08-02T14:56:31.000Z</time></trkpt>
        <trkpt lat="29.569823" lon="103.443209"><ele>622</ele><time>2026-08-02T14:56:57.000Z</time></trkpt>
        <trkpt lat="29.569957" lon="103.443162"><ele>625</ele><time>2026-08-02T14:57:09.000Z</time></trkpt>
        <trkpt lat="29.569951" lon="103.44284"><ele>628</ele><time>2026-08-02T14:57:31.000Z</time></trkpt>
        <trkpt lat="29.570265" lon="103.442687"><ele>630</ele><time>2026-08-02T14:57:55.000Z</time></trkpt>
        <trkpt lat="29.570522" lon="103.442249"><ele>631</ele><time>2026-08-02T14:58:27.000Z</time></trkpt>
        <trkpt lat="29.570649" lon="103.441412"><ele>631</ele><time>2026-08-02T14:59:46.000Z</time></trkpt>
        <trkpt lat="29.570944" lon="103.441369"><ele>631</ele><time>2026-08-02T15:00:18.000Z</time></trkpt>
        <trkpt lat="29.570556" lon="103.44155"><ele>630</ele><time>2026-08-02T15:00:52.000Z</time></trkpt>
        <trkpt lat="29.569926" lon="103.441085"><ele>628</ele><time>2026-08-02T15:01:44.000Z</time></trkpt>
        <trkpt lat="29.569225" lon="103.440954"><ele>623</ele><time>2026-08-02T15:02:30.000Z</time></trkpt>
        <trkpt lat="29.56893" lon="103.440188"><ele>627</ele><time>2026-08-02T15:03:30.000Z</time></trkpt>
        <trkpt lat="29.567138" lon="103.437906"><ele>644</ele><time>2026-08-02T15:06:24.000Z</time></trkpt>
        <trkpt lat="29.566362" lon="103.43646"><ele>654</ele><time>2026-08-02T15:08:04.000Z</time></trkpt>
        <trkpt lat="29.565901" lon="103.435093"><ele>661</ele><time>2026-08-02T15:09:32.000Z</time></trkpt>
        <trkpt lat="29.565555" lon="103.434698"><ele>667</ele><time>2026-08-02T15:10:06.000Z</time></trkpt>
        <trkpt lat="29.565736" lon="103.433407"><ele>678</ele><time>2026-08-02T15:11:30.000Z</time></trkpt>
        <trkpt lat="29.5653" lon="103.432011"><ele>689</ele><time>2026-08-02T15:12:58.000Z</time></trkpt>
        <trkpt lat="29.565533" lon="103.431055"><ele>701</ele><time>2026-08-02T15:13:58.000Z</time></trkpt>
        <trkpt lat="29.565343" lon="103.43079"><ele>705</ele><time>2026-08-02T15:14:24.000Z</time></trkpt>
        <trkpt lat="29.564827" lon="103.428498"><ele>715</ele><time>2026-08-02T15:16:49.000Z</time></trkpt>
        <trkpt lat="29.565426" lon="103.427874"><ele>721</ele><time>2026-08-02T15:17:44.000Z</time></trkpt>
        <trkpt lat="29.565339" lon="103.427321"><ele>726</ele><time>2026-08-02T15:18:22.000Z</time></trkpt>
        <trkpt lat="29.564923" lon="103.426829"><ele>733</ele><time>2026-08-02T15:19:05.000Z</time></trkpt>
        <trkpt lat="29.564968" lon="103.426665"><ele>733</ele><time>2026-08-02T15:19:15.000Z</time></trkpt>
        <trkpt lat="29.565364" lon="103.42649"><ele>737</ele><time>2026-08-02T15:20:32.000Z</time></trkpt>
        <trkpt lat="29.565223" lon="103.426603"><ele>737</ele><time>2026-08-02T15:21:01.000Z</time></trkpt>
      </trkseg>
      <trkseg>
        <trkpt lat="29.565005" lon="103.426709"><ele>737</ele><time>2026-08-02T15:38:37.000Z</time></trkpt>
        <trkpt lat="29.565164" lon="103.425723"><ele>774</ele><time>2026-08-02T15:41:26.000Z</time></trkpt>
        <trkpt lat="29.564734" lon="103.425149"><ele>773</ele><time>2026-08-02T15:42:23.000Z</time></trkpt>
        <trkpt lat="29.564621" lon="103.424346"><ele>788</ele><time>2026-08-02T15:43:47.000Z</time></trkpt>
        <trkpt lat="29.56432" lon="103.423784"><ele>805</ele><time>2026-08-02T15:45:07.000Z</time></trkpt>
        <trkpt lat="29.564489" lon="103.423045"><ele>822</ele><time>2026-08-02T15:46:38.000Z</time></trkpt>
        <trkpt lat="29.564254" lon="103.421362"><ele>872</ele><time>2026-08-02T15:50:30.000Z</time></trkpt>
        <trkpt lat="29.564663" lon="103.421058"><ele>879</ele><time>2026-08-02T15:51:14.000Z</time></trkpt>
        <trkpt lat="29.564924" lon="103.421355"><ele>888</ele><time>2026-08-02T15:51:56.000Z</time></trkpt>
        <trkpt lat="29.565685" lon="103.421079"><ele>908</ele><time>2026-08-02T15:53:53.000Z</time></trkpt>
        <trkpt lat="29.566177" lon="103.421076"><ele>917</ele><time>2026-08-02T15:54:47.000Z</time></trkpt>
        <trkpt lat="29.566709" lon="103.419821"><ele>918</ele><time>2026-08-02T15:56:13.000Z</time></trkpt>
        <trkpt lat="29.566995" lon="103.419989"><ele>930</ele><time>2026-08-02T15:57:09.000Z</time></trkpt>
        <trkpt lat="29.567153" lon="103.420426"><ele>938</ele><time>2026-08-02T15:57:56.000Z</time></trkpt>
        <trkpt lat="29.567402" lon="103.420439"><ele>947</ele><time>2026-08-02T15:58:40.000Z</time></trkpt>
        <trkpt lat="29.569428" lon="103.419658"><ele>1000</ele><time>2026-08-02T16:03:54.000Z</time></trkpt>
        <trkpt lat="29.569751" lon="103.419167"><ele>998</ele><time>2026-08-02T16:04:32.000Z</time></trkpt>
        <trkpt lat="29.56983" lon="103.41824"><ele>997</ele><time>2026-08-02T16:05:30.000Z</time></trkpt>
        <trkpt lat="29.570111" lon="103.417116"><ele>992</ele><time>2026-08-02T16:06:36.000Z</time></trkpt>
        <trkpt lat="29.570354" lon="103.416984"><ele>991</ele><time>2026-08-02T16:06:58.000Z</time></trkpt>
        <trkpt lat="29.570392" lon="103.416256"><ele>987</ele><time>2026-08-02T16:07:40.000Z</time></trkpt>
        <trkpt lat="29.570725" lon="103.415983"><ele>995</ele><time>2026-08-02T16:08:27.000Z</time></trkpt>
        <trkpt lat="29.569952" lon="103.415413"><ele>1001</ele><time>2026-08-02T16:09:41.000Z</time></trkpt>
        <trkpt lat="29.569677" lon="103.414752"><ele>1002</ele><time>2026-08-02T16:10:25.000Z</time></trkpt>
        <trkpt lat="29.56926" lon="103.414844"><ele>999</ele><time>2026-08-02T16:10:53.000Z</time></trkpt>
        <trkpt lat="29.569105" lon="103.414578"><ele>997</ele><time>2026-08-02T16:11:11.000Z</time></trkpt>
        <trkpt lat="29.569159" lon="103.413855"><ele>998</ele><time>2026-08-02T16:11:55.000Z</time></trkpt>
        <trkpt lat="29.568987" lon="103.413183"><ele>992</ele><time>2026-08-02T16:12:37.000Z</time></trkpt>
        <trkpt lat="29.569392" lon="103.412669"><ele>989</ele><time>2026-08-02T16:13:13.000Z</time></trkpt>
        <trkpt lat="29.56935" lon="103.41222"><ele>980</ele><time>2026-08-02T16:13:49.000Z</time></trkpt>
        <trkpt lat="29.568614" lon="103.411848"><ele>963</ele><time>2026-08-02T16:14:52.000Z</time></trkpt>
        <trkpt lat="29.568344" lon="103.411536"><ele>957</ele><time>2026-08-02T16:15:24.000Z</time></trkpt>
        <trkpt lat="29.56863" lon="103.410556"><ele>951</ele><time>2026-08-02T16:16:20.000Z</time></trkpt>
        <trkpt lat="29.568611" lon="103.410079"><ele>951</ele><time>2026-08-02T16:16:49.000Z</time></trkpt>
        <trkpt lat="29.56832" lon="103.409847"><ele>947</ele><time>2026-08-02T16:17:14.000Z</time></trkpt>
        <trkpt lat="29.567886" lon="103.408707"><ele>913</ele><time>2026-08-02T16:18:52.000Z</time></trkpt>
        <trkpt lat="29.567638" lon="103.408419"><ele>905</ele><time>2026-08-02T16:19:24.000Z</time></trkpt>
        <trkpt lat="29.567476" lon="103.408649"><ele>900</ele><time>2026-08-02T16:19:38.000Z</time></trkpt>
        <trkpt lat="29.566672" lon="103.40841"><ele>896</ele><time>2026-08-02T16:20:28.000Z</time></trkpt>
        <trkpt lat="29.566394" lon="103.406977"><ele>897</ele><time>2026-08-02T16:21:52.000Z</time></trkpt>
        <trkpt lat="29.56712" lon="103.405841"><ele>890</ele><time>2026-08-02T16:23:06.000Z</time></trkpt>
        <trkpt lat="29.566741" lon="103.405395"><ele>886</ele><time>2026-08-02T16:23:40.000Z</time></trkpt>
        <trkpt lat="29.566738" lon="103.405143"><ele>885</ele><time>2026-08-02T16:23:54.000Z</time></trkpt>
        <trkpt lat="29.56794" lon="103.404973"><ele>883</ele><time>2026-08-02T16:24:50.000Z</time></trkpt>
        <trkpt lat="29.568315" lon="103.404691"><ele>882</ele><time>2026-08-02T16:25:10.000Z</time></trkpt>
        <trkpt lat="29.568739" lon="103.403951"><ele>875</ele><time>2026-08-02T16:25:42.000Z</time></trkpt>
        <trkpt lat="29.569464" lon="103.403741"><ele>870</ele><time>2026-08-02T16:26:14.000Z</time></trkpt>
        <trkpt lat="29.570077" lon="103.402843"><ele>863</ele><time>2026-08-02T16:26:58.000Z</time></trkpt>
        <trkpt lat="29.570984" lon="103.402588"><ele>855</ele><time>2026-08-02T16:27:32.000Z</time></trkpt>
        <trkpt lat="29.571542" lon="103.401895"><ele>853</ele><time>2026-08-02T16:28:10.000Z</time></trkpt>
        <trkpt lat="29.571917" lon="103.401805"><ele>853</ele><time>2026-08-02T16:28:28.000Z</time></trkpt>
        <trkpt lat="29.572253" lon="103.40138"><ele>852</ele><time>2026-08-02T16:29:11.000Z</time></trkpt>
        <trkpt lat="29.57219" lon="103.401544"><ele>851</ele><time>2026-08-02T16:29:23.000Z</time></trkpt>
        <trkpt lat="29.572061" lon="103.40162"><ele>851</ele><time>2026-08-02T16:29:33.000Z</time></trkpt>
        <trkpt lat="29.571897" lon="103.400999"><ele>867</ele><time>2026-08-02T16:31:14.000Z</time></trkpt>
        <trkpt lat="29.571854" lon="103.39972"><ele>914</ele><time>2026-08-02T16:35:18.000Z</time></trkpt>
        <trkpt lat="29.571424" lon="103.397575"><ele>906</ele><time>2026-08-02T16:38:36.000Z</time></trkpt>
        <trkpt lat="29.57177" lon="103.396813"><ele>888</ele><time>2026-08-02T16:39:42.000Z</time></trkpt>
        <trkpt lat="29.572285" lon="103.396659"><ele>870</ele><time>2026-08-02T16:40:47.000Z</time></trkpt>
        <trkpt lat="29.572402" lon="103.396067"><ele>859</ele><time>2026-08-02T16:41:27.000Z</time></trkpt>
        <trkpt lat="29.572762" lon="103.395747"><ele>850</ele><time>2026-08-02T16:42:01.000Z</time></trkpt>
        <trkpt lat="29.572986" lon="103.395271"><ele>847</ele><time>2026-08-02T16:42:25.000Z</time></trkpt>
        <trkpt lat="29.572732" lon="103.394572"><ele>832</ele><time>2026-08-02T16:43:15.000Z</time></trkpt>
        <trkpt lat="29.573019" lon="103.393777"><ele>822</ele><time>2026-08-02T16:43:57.000Z</time></trkpt>
        <trkpt lat="29.573879" lon="103.393323"><ele>817</ele><time>2026-08-02T16:44:49.000Z</time></trkpt>
        <trkpt lat="29.574103" lon="103.392786"><ele>805</ele><time>2026-08-02T16:45:31.000Z</time></trkpt>
        <trkpt lat="29.574055" lon="103.39239"><ele>796</ele><time>2026-08-02T16:45:59.000Z</time></trkpt>
        <trkpt lat="29.574389" lon="103.392105"><ele>792</ele><time>2026-08-02T16:48:10.000Z</time></trkpt>
        <trkpt lat="29.57482" lon="103.392124"><ele>805</ele><time>2026-08-02T16:49:16.000Z</time></trkpt>
        <trkpt lat="29.575389" lon="103.391825"><ele>825</ele><time>2026-08-02T16:50:44.000Z</time></trkpt>
        <trkpt lat="29.576506" lon="103.39194"><ele>859</ele><time>2026-08-02T16:53:26.000Z</time></trkpt>
        <trkpt lat="29.577171" lon="103.390955"><ele>874</ele><time>2026-08-02T16:55:07.000Z</time></trkpt>
        <trkpt lat="29.577899" lon="103.391071"><ele>888</ele><time>2026-08-02T16:56:26.000Z</time></trkpt>
        <trkpt lat="29.578471" lon="103.389752"><ele>897</ele><time>2026-08-02T16:58:08.000Z</time></trkpt>
        <trkpt lat="29.5783" lon="103.389183"><ele>898</ele><time>2026-08-02T16:58:51.000Z</time></trkpt>
        <trkpt lat="29.578406" lon="103.388871"><ele>900</ele><time>2026-08-02T16:59:14.000Z</time></trkpt>
        <trkpt lat="29.578727" lon="103.388828"><ele>900</ele><time>2026-08-02T16:59:42.000Z</time></trkpt>
        <trkpt lat="29.578964" lon="103.388577"><ele>903</ele><time>2026-08-02T17:00:14.000Z</time></trkpt>
        <trkpt lat="29.578916" lon="103.387195"><ele>919</ele><time>2026-08-02T17:02:04.000Z</time></trkpt>
        <trkpt lat="29.579284" lon="103.386704"><ele>936</ele><time>2026-08-02T17:03:20.000Z</time></trkpt>
        <trkpt lat="29.579429" lon="103.385896"><ele>957</ele><time>2026-08-02T17:05:09.000Z</time></trkpt>
        <trkpt lat="29.580795" lon="103.384188"><ele>1012</ele><time>2026-08-02T17:10:06.000Z</time></trkpt>
        <trkpt lat="29.581669" lon="103.384296"><ele>1045</ele><time>2026-08-02T17:13:04.000Z</time></trkpt>
        <trkpt lat="29.581381" lon="103.383735"><ele>1059</ele><time>2026-08-02T17:15:08.000Z</time></trkpt>
        <trkpt lat="29.581892" lon="103.383197"><ele>1061</ele><time>2026-08-02T17:16:02.000Z</time></trkpt>
        <trkpt lat="29.581841" lon="103.382878"><ele>1070</ele><time>2026-08-02T17:16:49.000Z</time></trkpt>
        <trkpt lat="29.582098" lon="103.382022"><ele>1075</ele><time>2026-08-02T17:17:54.000Z</time></trkpt>
        <trkpt lat="29.582732" lon="103.381083"><ele>1078</ele><time>2026-08-02T17:19:12.000Z</time></trkpt>
        <trkpt lat="29.583055" lon="103.379925"><ele>1081</ele><time>2026-08-02T17:20:26.000Z</time></trkpt>
        <trkpt lat="29.582976" lon="103.379485"><ele>1095</ele><time>2026-08-02T17:21:20.000Z</time></trkpt>
        <trkpt lat="29.5827" lon="103.37961"><ele>1097</ele><time>2026-08-02T17:21:42.000Z</time></trkpt>
        <trkpt lat="29.58266" lon="103.379449"><ele>1099</ele><time>2026-08-02T17:21:56.000Z</time></trkpt>
        <trkpt lat="29.582938" lon="103.379138"><ele>1107</ele><time>2026-08-02T17:22:36.000Z</time></trkpt>
        <trkpt lat="29.58297" lon="103.378736"><ele>1115</ele><time>2026-08-02T17:23:35.000Z</time></trkpt>
        <trkpt lat="29.58243" lon="103.378322"><ele>1140</ele><time>2026-08-02T17:25:20.000Z</time></trkpt>
        <trkpt lat="29.582386" lon="103.377388"><ele>1169</ele><time>2026-08-02T17:27:40.000Z</time></trkpt>
        <trkpt lat="29.582122" lon="103.377142"><ele>1186</ele><time>2026-08-02T17:29:11.000Z</time></trkpt>
        <trkpt lat="29.581969" lon="103.376546"><ele>1214</ele><time>2026-08-02T17:31:15.000Z</time></trkpt>
        <trkpt lat="29.581764" lon="103.37653"><ele>1228</ele><time>2026-08-02T17:32:21.000Z</time></trkpt>
        <trkpt lat="29.581763" lon="103.376238"><ele>1238</ele><time>2026-08-02T17:33:15.000Z</time></trkpt>
        <trkpt lat="29.581097" lon="103.376527"><ele>1282</ele><time>2026-08-02T17:38:25.000Z</time></trkpt>
        <trkpt lat="29.5809" lon="103.376421"><ele>1296</ele><time>2026-08-02T17:39:39.000Z</time></trkpt>
        <trkpt lat="29.580961" lon="103.37619"><ele>1306</ele><time>2026-08-02T17:40:24.000Z</time></trkpt>
        <trkpt lat="29.580302" lon="103.376349"><ele>1315</ele><time>2026-08-02T17:45:34.000Z</time></trkpt>
        <trkpt lat="29.580063" lon="103.376271"><ele>1314</ele><time>2026-08-02T17:45:52.000Z</time></trkpt>
        <trkpt lat="29.579791" lon="103.375771"><ele>1314</ele><time>2026-08-02T17:46:28.000Z</time></trkpt>
        <trkpt lat="29.579965" lon="103.375521"><ele>1324</ele><time>2026-08-02T17:47:12.000Z</time></trkpt>
        <trkpt lat="29.58068" lon="103.375377"><ele>1357</ele><time>2026-08-02T17:50:02.000Z</time></trkpt>
        <trkpt lat="29.580601" lon="103.373929"><ele>1417</ele><time>2026-08-02T17:54:34.000Z</time></trkpt>
        <trkpt lat="29.579629" lon="103.372852"><ele>1456</ele><time>2026-08-02T17:58:42.000Z</time></trkpt>
        <trkpt lat="29.578999" lon="103.372487"><ele>1474</ele><time>2026-08-02T18:00:28.000Z</time></trkpt>
        <trkpt lat="29.578254" lon="103.371581"><ele>1495</ele><time>2026-08-02T18:02:55.000Z</time></trkpt>
        <trkpt lat="29.577527" lon="103.371042"><ele>1533</ele><time>2026-08-02T18:06:00.000Z</time></trkpt>
        <trkpt lat="29.577564" lon="103.370901"><ele>1534</ele><time>2026-08-02T18:06:35.000Z</time></trkpt>
        <trkpt lat="29.576962" lon="103.370088"><ele>1534</ele><time>2026-08-02T18:07:57.000Z</time></trkpt>
        <trkpt lat="29.576933" lon="103.368739"><ele>1543</ele><time>2026-08-02T18:09:52.000Z</time></trkpt>
        <trkpt lat="29.577224" lon="103.367772"><ele>1573</ele><time>2026-08-02T18:12:59.000Z</time></trkpt>
        <trkpt lat="29.576367" lon="103.366669"><ele>1565</ele><time>2026-08-02T18:14:51.000Z</time></trkpt>
        <trkpt lat="29.576055" lon="103.365944"><ele>1544</ele><time>2026-08-02T18:16:04.000Z</time></trkpt>
        <trkpt lat="29.57514" lon="103.365337"><ele>1559</ele><time>2026-08-02T18:18:56.000Z</time></trkpt>
        <trkpt lat="29.574449" lon="103.364121"><ele>1608</ele><time>2026-08-02T18:22:57.000Z</time></trkpt>
        <trkpt lat="29.574372" lon="103.363777"><ele>1617</ele><time>2026-08-02T18:23:44.000Z</time></trkpt>
        <trkpt lat="29.574633" lon="103.363651"><ele>1636</ele><time>2026-08-02T18:25:19.000Z</time></trkpt>
        <trkpt lat="29.574546" lon="103.363291"><ele>1639</ele><time>2026-08-02T18:26:18.000Z</time></trkpt>
        <trkpt lat="29.574628" lon="103.362901"><ele>1652</ele><time>2026-08-02T18:27:23.000Z</time></trkpt>
        <trkpt lat="29.574795" lon="103.362897"><ele>1657</ele><time>2026-08-02T18:27:58.000Z</time></trkpt>
        <trkpt lat="29.574894" lon="103.362659"><ele>1662</ele><time>2026-08-02T18:28:30.000Z</time></trkpt>
        <trkpt lat="29.574807" lon="103.362466"><ele>1666</ele><time>2026-08-02T18:28:57.000Z</time></trkpt>
        <trkpt lat="29.574015" lon="103.362553"><ele>1670</ele><time>2026-08-02T18:30:20.000Z</time></trkpt>
        <trkpt lat="29.572953" lon="103.361615"><ele>1711</ele><time>2026-08-02T18:33:55.000Z</time></trkpt>
        <trkpt lat="29.57163" lon="103.361903"><ele>1753</ele><time>2026-08-02T18:37:51.000Z</time></trkpt>
        <trkpt lat="29.570031" lon="103.36121"><ele>1761</ele><time>2026-08-02T18:40:32.000Z</time></trkpt>
        <trkpt lat="29.568842" lon="103.36024"><ele>1784</ele><time>2026-08-02T18:43:08.000Z</time></trkpt>
        <trkpt lat="29.56876" lon="103.359716"><ele>1791</ele><time>2026-08-02T18:44:01.000Z</time></trkpt>
        <trkpt lat="29.568244" lon="103.359727"><ele>1795</ele><time>2026-08-02T18:44:47.000Z</time></trkpt>
        <trkpt lat="29.568136" lon="103.359545"><ele>1795</ele><time>2026-08-02T18:45:05.000Z</time></trkpt>
        <trkpt lat="29.567824" lon="103.359611"><ele>1797</ele><time>2026-08-02T18:45:34.000Z</time></trkpt>
        <trkpt lat="29.567564" lon="103.359399"><ele>1800</ele><time>2026-08-02T18:46:07.000Z</time></trkpt>
        <trkpt lat="29.567251" lon="103.359485"><ele>1811</ele><time>2026-08-02T18:47:00.000Z</time></trkpt>
        <trkpt lat="29.566361" lon="103.358875"><ele>1834</ele><time>2026-08-02T18:49:27.000Z</time></trkpt>
        <trkpt lat="29.565994" lon="103.357638"><ele>1875</ele><time>2026-08-02T18:53:09.000Z</time></trkpt>
        <trkpt lat="29.565391" lon="103.356865"><ele>1905</ele><time>2026-08-02T18:55:54.000Z</time></trkpt>
        <trkpt lat="29.564891" lon="103.356591"><ele>1919</ele><time>2026-08-02T18:57:11.000Z</time></trkpt>
        <trkpt lat="29.564587" lon="103.356049"><ele>1933</ele><time>2026-08-02T18:58:44.000Z</time></trkpt>
        <trkpt lat="29.564253" lon="103.356453"><ele>1959</ele><time>2026-08-02T19:01:01.000Z</time></trkpt>
        <trkpt lat="29.564136" lon="103.356395"><ele>1962</ele><time>2026-08-02T19:01:35.000Z</time></trkpt>
        <trkpt lat="29.563882" lon="103.355233"><ele>1935</ele><time>2026-08-02T19:03:30.000Z</time></trkpt>
        <trkpt lat="29.56329" lon="103.354438"><ele>1936</ele><time>2026-08-02T19:04:39.000Z</time></trkpt>
        <trkpt lat="29.56292" lon="103.352755"><ele>1924</ele><time>2026-08-02T19:06:51.000Z</time></trkpt>
        <trkpt lat="29.563143" lon="103.352312"><ele>1909</ele><time>2026-08-02T19:07:25.000Z</time></trkpt>
        <trkpt lat="29.562794" lon="103.35061"><ele>1892</ele><time>2026-08-02T19:09:32.000Z</time></trkpt>
        <trkpt lat="29.562948" lon="103.349736"><ele>1884</ele><time>2026-08-02T19:11:12.000Z</time></trkpt>
        <trkpt lat="29.563234" lon="103.349124"><ele>1885</ele><time>2026-08-02T19:11:57.000Z</time></trkpt>
        <trkpt lat="29.563261" lon="103.348351"><ele>1891</ele><time>2026-08-02T19:12:57.000Z</time></trkpt>
        <trkpt lat="29.563566" lon="103.347881"><ele>1892</ele><time>2026-08-02T19:13:41.000Z</time></trkpt>
        <trkpt lat="29.56352" lon="103.34746"><ele>1883</ele><time>2026-08-02T19:14:21.000Z</time></trkpt>
        <trkpt lat="29.562827" lon="103.346566"><ele>1879</ele><time>2026-08-02T19:15:53.000Z</time></trkpt>
        <trkpt lat="29.562426" lon="103.346299"><ele>1876</ele><time>2026-08-02T19:16:27.000Z</time></trkpt>
        <trkpt lat="29.562132" lon="103.345752"><ele>1874</ele><time>2026-08-02T19:17:07.000Z</time></trkpt>
        <trkpt lat="29.561641" lon="103.3456"><ele>1879</ele><time>2026-08-02T19:17:51.000Z</time></trkpt>
        <trkpt lat="29.561176" lon="103.345053"><ele>1894</ele><time>2026-08-02T19:19:48.000Z</time></trkpt>
      </trkseg>
      <trkseg>
        <trkpt lat="29.561171" lon="103.34505"><ele>1894</ele><time>2026-08-02T19:19:50.000Z</time></trkpt>
        <trkpt lat="29.560912" lon="103.345047"><ele>1920</ele><time>2026-08-02T19:21:42.000Z</time></trkpt>
        <trkpt lat="29.560666" lon="103.344686"><ele>1945</ele><time>2026-08-02T19:24:00.000Z</time></trkpt>
        <trkpt lat="29.560319" lon="103.344504"><ele>1967</ele><time>2026-08-02T19:26:01.000Z</time></trkpt>
        <trkpt lat="29.560048" lon="103.344201"><ele>1988</ele><time>2026-08-02T19:28:06.000Z</time></trkpt>
        <trkpt lat="29.560096" lon="103.34391"><ele>2011</ele><time>2026-08-02T19:29:53.000Z</time></trkpt>
        <trkpt lat="29.559715" lon="103.343512"><ele>2032</ele><time>2026-08-02T19:31:56.000Z</time></trkpt>
        <trkpt lat="29.559489" lon="103.343502"><ele>2049</ele><time>2026-08-02T19:33:49.000Z</time></trkpt>
        <trkpt lat="29.559241" lon="103.343788"><ele>2070</ele><time>2026-08-02T19:36:01.000Z</time></trkpt>
        <trkpt lat="29.559055" lon="103.34365"><ele>2083</ele><time>2026-08-02T19:37:32.000Z</time></trkpt>
        <trkpt lat="29.558915" lon="103.343736"><ele>2092</ele><time>2026-08-02T19:38:22.000Z</time></trkpt>
        <trkpt lat="29.558864" lon="103.344327"><ele>2105</ele><time>2026-08-02T19:40:07.000Z</time></trkpt>
        <trkpt lat="29.558271" lon="103.344028"><ele>2124</ele><time>2026-08-02T19:42:41.000Z</time></trkpt>
        <trkpt lat="29.557638" lon="103.343982"><ele>2124</ele><time>2026-08-02T19:43:48.000Z</time></trkpt>
        <trkpt lat="29.557474" lon="103.343728"><ele>2121</ele><time>2026-08-02T19:44:18.000Z</time></trkpt>
        <trkpt lat="29.557153" lon="103.343621"><ele>2135</ele><time>2026-08-02T19:46:00.000Z</time></trkpt>
        <trkpt lat="29.556656" lon="103.343745"><ele>2153</ele><time>2026-08-02T19:48:01.000Z</time></trkpt>
        <trkpt lat="29.555844" lon="103.344976"><ele>2204</ele><time>2026-08-02T19:54:00.000Z</time></trkpt>
        <trkpt lat="29.555615" lon="103.344944"><ele>2216</ele><time>2026-08-02T19:55:10.000Z</time></trkpt>
        <trkpt lat="29.555457" lon="103.345113"><ele>2229</ele><time>2026-08-02T19:56:27.000Z</time></trkpt>
        <trkpt lat="29.555268" lon="103.344981"><ele>2234</ele><time>2026-08-02T19:57:00.000Z</time></trkpt>
        <trkpt lat="29.554704" lon="103.345338"><ele>2251</ele><time>2026-08-02T19:59:12.000Z</time></trkpt>
        <trkpt lat="29.554061" lon="103.345492"><ele>2280</ele><time>2026-08-02T20:02:31.000Z</time></trkpt>
        <trkpt lat="29.553706" lon="103.345276"><ele>2289</ele><time>2026-08-02T20:03:30.000Z</time></trkpt>
        <trkpt lat="29.552482" lon="103.345453"><ele>2301</ele><time>2026-08-02T20:05:41.000Z</time></trkpt>
        <trkpt lat="29.552459" lon="103.345231"><ele>2300</ele><time>2026-08-02T20:05:57.000Z</time></trkpt>
        <trkpt lat="29.552012" lon="103.345021"><ele>2300</ele><time>2026-08-02T20:06:33.000Z</time></trkpt>
        <trkpt lat="29.55157" lon="103.344288"><ele>2297</ele><time>2026-08-02T20:07:41.000Z</time></trkpt>
        <trkpt lat="29.550784" lon="103.34408"><ele>2289</ele><time>2026-08-02T20:08:55.000Z</time></trkpt>
        <trkpt lat="29.550326" lon="103.343569"><ele>2294</ele><time>2026-08-02T20:09:51.000Z</time></trkpt>
        <trkpt lat="29.549377" lon="103.342168"><ele>2300</ele><time>2026-08-02T20:12:13.000Z</time></trkpt>
        <trkpt lat="29.549038" lon="103.341196"><ele>2312</ele><time>2026-08-02T20:14:27.000Z</time></trkpt>
        <trkpt lat="29.547981" lon="103.341204"><ele>2344</ele><time>2026-08-02T20:23:14.000Z</time></trkpt>
        <trkpt lat="29.547409" lon="103.340966"><ele>2359</ele><time>2026-08-02T20:24:47.000Z</time></trkpt>
        <trkpt lat="29.54714" lon="103.340408"><ele>2368</ele><time>2026-08-02T20:25:51.000Z</time></trkpt>
        <trkpt lat="29.54705" lon="103.339665"><ele>2400</ele><time>2026-08-02T20:28:52.000Z</time></trkpt>
        <trkpt lat="29.5462" lon="103.338398"><ele>2458</ele><time>2026-08-02T20:36:53.000Z</time></trkpt>
        <trkpt lat="29.546618" lon="103.337296"><ele>2472</ele><time>2026-08-02T20:39:11.000Z</time></trkpt>
        <trkpt lat="29.546427" lon="103.336776"><ele>2471</ele><time>2026-08-02T20:39:59.000Z</time></trkpt>
        <trkpt lat="29.546766" lon="103.335331"><ele>2449</ele><time>2026-08-02T20:42:02.000Z</time></trkpt>
        <trkpt lat="29.546713" lon="103.335033"><ele>2443</ele><time>2026-08-02T20:42:20.000Z</time></trkpt>
        <trkpt lat="29.54631" lon="103.334789"><ele>2447</ele><time>2026-08-02T20:43:10.000Z</time></trkpt>
        <trkpt lat="29.545944" lon="103.334804"><ele>2447</ele><time>2026-08-02T20:43:55.000Z</time></trkpt>
        <trkpt lat="29.545205" lon="103.334119"><ele>2446</ele><time>2026-08-02T20:45:17.000Z</time></trkpt>
        <trkpt lat="29.544639" lon="103.334273"><ele>2442</ele><time>2026-08-02T20:46:07.000Z</time></trkpt>
        <trkpt lat="29.543643" lon="103.333926"><ele>2442</ele><time>2026-08-02T20:47:25.000Z</time></trkpt>
        <trkpt lat="29.54314" lon="103.333007"><ele>2440</ele><time>2026-08-02T20:48:39.000Z</time></trkpt>
        <trkpt lat="29.542575" lon="103.332632"><ele>2440</ele><time>2026-08-02T20:49:31.000Z</time></trkpt>
        <trkpt lat="29.542233" lon="103.332028"><ele>2440</ele><time>2026-08-02T20:50:31.000Z</time></trkpt>
        <trkpt lat="29.541713" lon="103.332074"><ele>2437</ele><time>2026-08-02T20:51:33.000Z</time></trkpt>
        <trkpt lat="29.541748" lon="103.331673"><ele>2438</ele><time>2026-08-02T20:52:11.000Z</time></trkpt>
        <trkpt lat="29.541236" lon="103.331777"><ele>2440</ele><time>2026-08-02T20:53:02.000Z</time></trkpt>
        <trkpt lat="29.541361" lon="103.331896"><ele>2440</ele><time>2026-08-02T20:53:20.000Z</time></trkpt>
        <trkpt lat="29.540677" lon="103.331769"><ele>2447</ele><time>2026-08-02T20:56:00.000Z</time></trkpt>
        <trkpt lat="29.538907" lon="103.333104"><ele>2467</ele><time>2026-08-02T20:59:04.000Z</time></trkpt>
        <trkpt lat="29.538319" lon="103.333258"><ele>2471</ele><time>2026-08-02T20:59:48.000Z</time></trkpt>
        <trkpt lat="29.537326" lon="103.333844"><ele>2481</ele><time>2026-08-02T21:01:14.000Z</time></trkpt>
        <trkpt lat="29.537187" lon="103.334138"><ele>2488</ele><time>2026-08-02T21:01:57.000Z</time></trkpt>
        <trkpt lat="29.536646" lon="103.334378"><ele>2500</ele><time>2026-08-02T21:03:05.000Z</time></trkpt>
        <trkpt lat="29.5361" lon="103.334303"><ele>2505</ele><time>2026-08-02T21:04:11.000Z</time></trkpt>
        <trkpt lat="29.535421" lon="103.33372"><ele>2523</ele><time>2026-08-02T21:05:52.000Z</time></trkpt>
        <trkpt lat="29.535395" lon="103.333044"><ele>2526</ele><time>2026-08-02T21:07:34.000Z</time></trkpt>
        <trkpt lat="29.535396" lon="103.333549"><ele>2524</ele><time>2026-08-02T21:08:46.000Z</time></trkpt>
        <trkpt lat="29.535374" lon="103.333048"><ele>2525</ele><time>2026-08-02T21:09:06.000Z</time></trkpt>
        <trkpt lat="29.535048" lon="103.332574"><ele>2528</ele><time>2026-08-02T21:09:32.000Z</time></trkpt>
        <trkpt lat="29.534903" lon="103.331453"><ele>2531</ele><time>2026-08-02T21:10:36.000Z</time></trkpt>
        <trkpt lat="29.534712" lon="103.331512"><ele>2534</ele><time>2026-08-02T21:10:58.000Z</time></trkpt>
        <trkpt lat="29.534723" lon="103.332555"><ele>2540</ele><time>2026-08-02T21:12:00.000Z</time></trkpt>
        <trkpt lat="29.534897" lon="103.332907"><ele>2542</ele><time>2026-08-02T21:12:16.000Z</time></trkpt>
        <trkpt lat="29.533894" lon="103.333228"><ele>2573</ele><time>2026-08-02T21:15:03.000Z</time></trkpt>
        <trkpt lat="29.532943" lon="103.332423"><ele>2617</ele><time>2026-08-02T21:19:30.000Z</time></trkpt>
        <trkpt lat="29.53253" lon="103.331876"><ele>2639</ele><time>2026-08-02T21:21:37.000Z</time></trkpt>
        <trkpt lat="29.532322" lon="103.331223"><ele>2663</ele><time>2026-08-02T21:23:58.000Z</time></trkpt>
        <trkpt lat="29.532165" lon="103.331436"><ele>2671</ele><time>2026-08-02T21:24:44.000Z</time></trkpt>
        <trkpt lat="29.532182" lon="103.330243"><ele>2702</ele><time>2026-08-02T21:32:21.000Z</time></trkpt>
        <trkpt lat="29.531867" lon="103.330256"><ele>2717</ele><time>2026-08-02T21:33:48.000Z</time></trkpt>
        <trkpt lat="29.531276" lon="103.32983"><ele>2751</ele><time>2026-08-02T21:37:03.000Z</time></trkpt>
        <trkpt lat="29.53106" lon="103.32899"><ele>2775</ele><time>2026-08-02T21:39:22.000Z</time></trkpt>
        <trkpt lat="29.531266" lon="103.328192"><ele>2789</ele><time>2026-08-02T21:40:44.000Z</time></trkpt>
        <trkpt lat="29.531223" lon="103.327286"><ele>2809</ele><time>2026-08-02T21:42:35.000Z</time></trkpt>
        <trkpt lat="29.530719" lon="103.326866"><ele>2832</ele><time>2026-08-02T21:44:55.000Z</time></trkpt>
        <trkpt lat="29.529933" lon="103.327351"><ele>2850</ele><time>2026-08-02T21:46:46.000Z</time></trkpt>
        <trkpt lat="29.529708" lon="103.327796"><ele>2853</ele><time>2026-08-02T21:47:28.000Z</time></trkpt>
        <trkpt lat="29.529307" lon="103.327854"><ele>2857</ele><time>2026-08-02T21:48:26.000Z</time></trkpt>
        <trkpt lat="29.528598" lon="103.329935"><ele>2896</ele><time>2026-08-02T21:52:28.000Z</time></trkpt>
        <trkpt lat="29.528303" lon="103.330247"><ele>2896</ele><time>2026-08-02T21:53:02.000Z</time></trkpt>
        <trkpt lat="29.528287" lon="103.330678"><ele>2904</ele><time>2026-08-02T21:54:00.000Z</time></trkpt>
        <trkpt lat="29.52774" lon="103.331613"><ele>2924</ele><time>2026-08-02T21:55:47.000Z</time></trkpt>
        <trkpt lat="29.527595" lon="103.332349"><ele>2938</ele><time>2026-08-02T21:57:16.000Z</time></trkpt>
        <trkpt lat="29.52743" lon="103.332503"><ele>2944</ele><time>2026-08-02T21:57:57.000Z</time></trkpt>
        <trkpt lat="29.527135" lon="103.332285"><ele>2946</ele><time>2026-08-02T21:58:30.000Z</time></trkpt>
        <trkpt lat="29.527057" lon="103.332371"><ele>2949</ele><time>2026-08-02T21:58:55.000Z</time></trkpt>
        <trkpt lat="29.527116" lon="103.333352"><ele>2962</ele><time>2026-08-02T22:00:27.000Z</time></trkpt>
        <trkpt lat="29.525768" lon="103.334052"><ele>2992</ele><time>2026-08-02T22:03:49.000Z</time></trkpt>
        <trkpt lat="29.525023" lon="103.33488"><ele>3013</ele><time>2026-08-02T22:06:27.000Z</time></trkpt>
        <trkpt lat="29.524677" lon="103.334778"><ele>3018</ele><time>2026-08-02T22:07:17.000Z</time></trkpt>
        <trkpt lat="29.52408" lon="103.335005"><ele>3019</ele><time>2026-08-02T22:08:07.000Z</time></trkpt>
        <trkpt lat="29.522777" lon="103.334814"><ele>3034</ele><time>2026-08-02T22:10:27.000Z</time></trkpt>
        <trkpt lat="29.522856" lon="103.335837"><ele>3053</ele><time>2026-08-02T22:13:22.000Z</time></trkpt>
        <trkpt lat="29.522679" lon="103.335978"><ele>3055</ele><time>2026-08-02T22:14:00.000Z</time></trkpt>
      </trkseg>
      <trkseg>
        <trkpt lat="29.522693" lon="103.336428"><ele>3051</ele><time>2026-08-02T22:50:54.000Z</time></trkpt>
        <trkpt lat="29.522572" lon="103.336051"><ele>3050</ele><time>2026-08-02T22:51:24.000Z</time></trkpt>
        <trkpt lat="29.522456" lon="103.336133"><ele>3050</ele><time>2026-08-02T22:51:32.000Z</time></trkpt>
      </trkseg>
      <trkseg>
        <trkpt lat="29.522094" lon="103.336165"><ele>3049</ele><time>2026-08-02T22:54:03.000Z</time></trkpt>
        <trkpt lat="29.522519" lon="103.33611"><ele>3049</ele><time>2026-08-02T22:54:44.000Z</time></trkpt>
        <trkpt lat="29.522779" lon="103.335893"><ele>3046</ele><time>2026-08-02T22:55:22.000Z</time></trkpt>
        <trkpt lat="29.522656" lon="103.334846"><ele>3030</ele><time>2026-08-02T22:57:30.000Z</time></trkpt>
      </trkseg>
      <trkseg>
        <trkpt lat="29.522706" lon="103.334784"><ele>3029</ele><time>2026-08-02T22:59:24.000Z</time></trkpt>
        <trkpt lat="29.523048" lon="103.33468"><ele>3025</ele><time>2026-08-02T23:00:16.000Z</time></trkpt>
        <trkpt lat="29.523885" lon="103.334934"><ele>3017</ele><time>2026-08-02T23:02:17.000Z</time></trkpt>
        <trkpt lat="29.52415" lon="103.334782"><ele>3014</ele><time>2026-08-02T23:02:57.000Z</time></trkpt>
        <trkpt lat="29.524206" lon="103.334941"><ele>3014</ele><time>2026-08-02T23:04:36.000Z</time></trkpt>
        <trkpt lat="29.524755" lon="103.334744"><ele>3009</ele><time>2026-08-02T23:05:56.000Z</time></trkpt>
        <trkpt lat="29.525023" lon="103.334826"><ele>3008</ele><time>2026-08-02T23:06:18.000Z</time></trkpt>
        <trkpt lat="29.525838" lon="103.333993"><ele>2986</ele><time>2026-08-02T23:07:50.000Z</time></trkpt>
        <trkpt lat="29.52705" lon="103.333329"><ele>2957</ele><time>2026-08-02T23:09:51.000Z</time></trkpt>
        <trkpt lat="29.52709" lon="103.332341"><ele>2943</ele><time>2026-08-02T23:10:49.000Z</time></trkpt>
        <trkpt lat="29.527196" lon="103.332263"><ele>2940</ele><time>2026-08-02T23:10:58.000Z</time></trkpt>
        <trkpt lat="29.527416" lon="103.332505"><ele>2938</ele><time>2026-08-02T23:11:23.000Z</time></trkpt>
        <trkpt lat="29.527581" lon="103.332358"><ele>2933</ele><time>2026-08-02T23:11:48.000Z</time></trkpt>
        <trkpt lat="29.527748" lon="103.331559"><ele>2918</ele><time>2026-08-02T23:12:30.000Z</time></trkpt>
        <trkpt lat="29.52833" lon="103.330572"><ele>2895</ele><time>2026-08-02T23:13:30.000Z</time></trkpt>
        <trkpt lat="29.528298" lon="103.330273"><ele>2889</ele><time>2026-08-02T23:13:59.000Z</time></trkpt>
        <trkpt lat="29.528548" lon="103.330029"><ele>2889</ele><time>2026-08-02T23:14:18.000Z</time></trkpt>
        <trkpt lat="29.52928" lon="103.327829"><ele>2851</ele><time>2026-08-02T23:16:22.000Z</time></trkpt>
        <trkpt lat="29.529703" lon="103.327758"><ele>2847</ele><time>2026-08-02T23:16:56.000Z</time></trkpt>
        <trkpt lat="29.529887" lon="103.327308"><ele>2843</ele><time>2026-08-02T23:17:28.000Z</time></trkpt>
        <trkpt lat="29.530579" lon="103.326847"><ele>2830</ele><time>2026-08-02T23:18:34.000Z</time></trkpt>
      </trkseg>
      <trkseg>
        <trkpt lat="29.530654" lon="103.326865"><ele>2826</ele><time>2026-08-02T23:22:53.000Z</time></trkpt>
        <trkpt lat="29.530812" lon="103.326798"><ele>2821</ele><time>2026-08-02T23:23:14.000Z</time></trkpt>
        <trkpt lat="29.531246" lon="103.327296"><ele>2803</ele><time>2026-08-02T23:24:21.000Z</time></trkpt>
        <trkpt lat="29.531153" lon="103.329494"><ele>2762</ele><time>2026-08-02T23:26:59.000Z</time></trkpt>
        <trkpt lat="29.531473" lon="103.329894"><ele>2737</ele><time>2026-08-02T23:27:57.000Z</time></trkpt>
        <trkpt lat="29.532188" lon="103.330245"><ele>2698</ele><time>2026-08-02T23:29:35.000Z</time></trkpt>
        <trkpt lat="29.532244" lon="103.331407"><ele>2668</ele><time>2026-08-02T23:31:43.000Z</time></trkpt>
        <trkpt lat="29.532341" lon="103.331182"><ele>2661</ele><time>2026-08-02T23:32:05.000Z</time></trkpt>
        <trkpt lat="29.532899" lon="103.332278"><ele>2622</ele><time>2026-08-02T23:34:11.000Z</time></trkpt>
        <trkpt lat="29.533884" lon="103.333175"><ele>2578</ele><time>2026-08-02T23:36:25.000Z</time></trkpt>
        <trkpt lat="29.534842" lon="103.332898"><ele>2545</ele><time>2026-08-02T23:38:12.000Z</time></trkpt>
        <trkpt lat="29.534668" lon="103.332376"><ele>2542</ele><time>2026-08-02T23:38:46.000Z</time></trkpt>
        <trkpt lat="29.534712" lon="103.331452"><ele>2537</ele><time>2026-08-02T23:39:32.000Z</time></trkpt>
        <trkpt lat="29.534869" lon="103.331374"><ele>2534</ele><time>2026-08-02T23:39:44.000Z</time></trkpt>
        <trkpt lat="29.535003" lon="103.331517"><ele>2533</ele><time>2026-08-02T23:39:54.000Z</time></trkpt>
        <trkpt lat="29.53508" lon="103.332567"><ele>2530</ele><time>2026-08-02T23:41:00.000Z</time></trkpt>
        <trkpt lat="29.535443" lon="103.333139"><ele>2528</ele><time>2026-08-02T23:41:44.000Z</time></trkpt>
        <trkpt lat="29.535495" lon="103.333763"><ele>2525</ele><time>2026-08-02T23:42:22.000Z</time></trkpt>
        <trkpt lat="29.536232" lon="103.334337"><ele>2506</ele><time>2026-08-02T23:44:05.000Z</time></trkpt>
        <trkpt lat="29.536656" lon="103.33435"><ele>2500</ele><time>2026-08-02T23:44:58.000Z</time></trkpt>
        <trkpt lat="29.537196" lon="103.334093"><ele>2490</ele><time>2026-08-02T23:45:59.000Z</time></trkpt>
        <trkpt lat="29.537199" lon="103.333855"><ele>2485</ele><time>2026-08-02T23:46:34.000Z</time></trkpt>
        <trkpt lat="29.537362" lon="103.333755"><ele>2482</ele><time>2026-08-02T23:48:21.000Z</time></trkpt>
        <trkpt lat="29.537577" lon="103.333766"><ele>2479</ele><time>2026-08-02T23:48:46.000Z</time></trkpt>
        <trkpt lat="29.538343" lon="103.3332"><ele>2472</ele><time>2026-08-02T23:50:05.000Z</time></trkpt>
        <trkpt lat="29.538947" lon="103.333008"><ele>2467</ele><time>2026-08-02T23:50:53.000Z</time></trkpt>
        <trkpt lat="29.540705" lon="103.33172"><ele>2447</ele><time>2026-08-02T23:53:49.000Z</time></trkpt>
        <trkpt lat="29.541804" lon="103.331649"><ele>2437</ele><time>2026-08-02T23:55:05.000Z</time></trkpt>
        <trkpt lat="29.541735" lon="103.332083"><ele>2436</ele><time>2026-08-02T23:55:31.000Z</time></trkpt>
        <trkpt lat="29.542323" lon="103.332035"><ele>2440</ele><time>2026-08-02T23:56:21.000Z</time></trkpt>
        <trkpt lat="29.542855" lon="103.33292"><ele>2439</ele><time>2026-08-02T23:58:18.000Z</time></trkpt>
        <trkpt lat="29.543215" lon="103.333015"><ele>2440</ele><time>2026-08-02T23:58:53.000Z</time></trkpt>
        <trkpt lat="29.543675" lon="103.333935"><ele>2442</ele><time>2026-08-03T00:00:19.000Z</time></trkpt>
        <trkpt lat="29.54466" lon="103.33423"><ele>2440</ele><time>2026-08-03T00:01:36.000Z</time></trkpt>
        <trkpt lat="29.545168" lon="103.334072"><ele>2446</ele><time>2026-08-03T00:02:20.000Z</time></trkpt>
        <trkpt lat="29.545951" lon="103.334746"><ele>2442</ele><time>2026-08-03T00:03:38.000Z</time></trkpt>
        <trkpt lat="29.546296" lon="103.334732"><ele>2447</ele><time>2026-08-03T00:04:21.000Z</time></trkpt>
        <trkpt lat="29.546771" lon="103.335025"><ele>2440</ele><time>2026-08-03T00:05:12.000Z</time></trkpt>
        <trkpt lat="29.546809" lon="103.335368"><ele>2447</ele><time>2026-08-03T00:05:42.000Z</time></trkpt>
        <trkpt lat="29.546418" lon="103.336609"><ele>2464</ele><time>2026-08-03T00:08:21.000Z</time></trkpt>
        <trkpt lat="29.546634" lon="103.337066"><ele>2472</ele><time>2026-08-03T00:09:34.000Z</time></trkpt>
      </trkseg>
      <trkseg>
        <trkpt lat="29.546579" lon="103.337367"><ele>2469</ele><time>2026-08-03T00:13:32.000Z</time></trkpt>
        <trkpt lat="29.546235" lon="103.338029"><ele>2466</ele><time>2026-08-03T00:14:38.000Z</time></trkpt>
        <trkpt lat="29.54621" lon="103.338402"><ele>2457</ele><time>2026-08-03T00:15:07.000Z</time></trkpt>
        <trkpt lat="29.547058" lon="103.339678"><ele>2395</ele><time>2026-08-03T00:17:48.000Z</time></trkpt>
        <trkpt lat="29.547441" lon="103.340975"><ele>2349</ele><time>2026-08-03T00:20:28.000Z</time></trkpt>
        <trkpt lat="29.548416" lon="103.341254"><ele>2327</ele><time>2026-08-03T00:21:46.000Z</time></trkpt>
        <trkpt lat="29.54906" lon="103.341138"><ele>2302</ele><time>2026-08-03T00:22:52.000Z</time></trkpt>
        <trkpt lat="29.549413" lon="103.342203"><ele>2292</ele><time>2026-08-03T00:24:07.000Z</time></trkpt>
        <trkpt lat="29.550366" lon="103.343622"><ele>2283</ele><time>2026-08-03T00:25:45.000Z</time></trkpt>
        <trkpt lat="29.550819" lon="103.344103"><ele>2277</ele><time>2026-08-03T00:26:25.000Z</time></trkpt>
        <trkpt lat="29.551604" lon="103.344269"><ele>2283</ele><time>2026-08-03T00:27:30.000Z</time></trkpt>
        <trkpt lat="29.552028" lon="103.345068"><ele>2286</ele><time>2026-08-03T00:28:36.000Z</time></trkpt>
        <trkpt lat="29.55245" lon="103.345229"><ele>2288</ele><time>2026-08-03T00:29:12.000Z</time></trkpt>
        <trkpt lat="29.552481" lon="103.345445"><ele>2285</ele><time>2026-08-03T00:29:28.000Z</time></trkpt>
        <trkpt lat="29.55366" lon="103.345267"><ele>2279</ele><time>2026-08-03T00:31:07.000Z</time></trkpt>
        <trkpt lat="29.554121" lon="103.345486"><ele>2267</ele><time>2026-08-03T00:31:27.000Z</time></trkpt>
        <trkpt lat="29.555272" lon="103.344973"><ele>2217</ele><time>2026-08-03T00:33:12.000Z</time></trkpt>
        <trkpt lat="29.555448" lon="103.345143"><ele>2211</ele><time>2026-08-03T00:33:28.000Z</time></trkpt>
        <trkpt lat="29.555615" lon="103.344884"><ele>2198</ele><time>2026-08-03T00:33:56.000Z</time></trkpt>
        <trkpt lat="29.555846" lon="103.344925"><ele>2187</ele><time>2026-08-03T00:34:25.000Z</time></trkpt>
        <trkpt lat="29.556723" lon="103.343684"><ele>2129</ele><time>2026-08-03T00:36:25.000Z</time></trkpt>
        <trkpt lat="29.557133" lon="103.34359"><ele>2110</ele><time>2026-08-03T00:37:10.000Z</time></trkpt>
        <trkpt lat="29.557729" lon="103.34398"><ele>2101</ele><time>2026-08-03T00:38:26.000Z</time></trkpt>
        <trkpt lat="29.558246" lon="103.343943"><ele>2101</ele><time>2026-08-03T00:38:59.000Z</time></trkpt>
        <trkpt lat="29.558868" lon="103.344299"><ele>2083</ele><time>2026-08-03T00:40:07.000Z</time></trkpt>
        <trkpt lat="29.55892" lon="103.343726"><ele>2067</ele><time>2026-08-03T00:41:06.000Z</time></trkpt>
        <trkpt lat="29.559042" lon="103.343631"><ele>2059</ele><time>2026-08-03T00:41:24.000Z</time></trkpt>
        <trkpt lat="29.559214" lon="103.343798"><ele>2045</ele><time>2026-08-03T00:41:52.000Z</time></trkpt>
        <trkpt lat="29.559496" lon="103.343467"><ele>2021</ele><time>2026-08-03T00:43:20.000Z</time></trkpt>
        <trkpt lat="29.55965" lon="103.343588"><ele>2013</ele><time>2026-08-03T00:43:44.000Z</time></trkpt>
        <trkpt lat="29.559711" lon="103.343475"><ele>2007</ele><time>2026-08-03T00:43:58.000Z</time></trkpt>
        <trkpt lat="29.560121" lon="103.343905"><ele>1980</ele><time>2026-08-03T00:44:56.000Z</time></trkpt>
        <trkpt lat="29.560071" lon="103.344216"><ele>1960</ele><time>2026-08-03T00:45:38.000Z</time></trkpt>
        <trkpt lat="29.560682" lon="103.344683"><ele>1913</ele><time>2026-08-03T00:47:41.000Z</time></trkpt>
        <trkpt lat="29.560907" lon="103.345082"><ele>1888</ele><time>2026-08-03T00:48:37.000Z</time></trkpt>
        <trkpt lat="29.561161" lon="103.345021"><ele>1868</ele><time>2026-08-03T00:49:22.000Z</time></trkpt>
        <trkpt lat="29.561683" lon="103.345605"><ele>1850</ele><time>2026-08-03T00:50:32.000Z</time></trkpt>
        <trkpt lat="29.562071" lon="103.34559"><ele>1846</ele><time>2026-08-03T00:51:04.000Z</time></trkpt>
        <trkpt lat="29.562348" lon="103.34617"><ele>1845</ele><time>2026-08-03T00:51:46.000Z</time></trkpt>
        <trkpt lat="29.562854" lon="103.346537"><ele>1850</ele><time>2026-08-03T00:52:40.000Z</time></trkpt>
        <trkpt lat="29.56358" lon="103.347525"><ele>1855</ele><time>2026-08-03T00:54:08.000Z</time></trkpt>
        <trkpt lat="29.562786" lon="103.350543"><ele>1862</ele><time>2026-08-03T00:57:39.000Z</time></trkpt>
        <trkpt lat="29.563168" lon="103.352275"><ele>1878</ele><time>2026-08-03T01:02:13.000Z</time></trkpt>
        <trkpt lat="29.562904" lon="103.352771"><ele>1892</ele><time>2026-08-03T01:03:27.000Z</time></trkpt>
        <trkpt lat="29.563332" lon="103.354448"><ele>1906</ele><time>2026-08-03T01:06:23.000Z</time></trkpt>
        <trkpt lat="29.563892" lon="103.355187"><ele>1904</ele><time>2026-08-03T01:07:31.000Z</time></trkpt>
        <trkpt lat="29.564122" lon="103.356383"><ele>1930</ele><time>2026-08-03T01:09:40.000Z</time></trkpt>
        <trkpt lat="29.564283" lon="103.356418"><ele>1927</ele><time>2026-08-03T01:10:16.000Z</time></trkpt>
        <trkpt lat="29.564357" lon="103.356141"><ele>1916</ele><time>2026-08-03T01:10:44.000Z</time></trkpt>
        <trkpt lat="29.564613" lon="103.356033"><ele>1902</ele><time>2026-08-03T01:11:22.000Z</time></trkpt>
        <trkpt lat="29.564923" lon="103.35656"><ele>1890</ele><time>2026-08-03T01:12:04.000Z</time></trkpt>
        <trkpt lat="29.565428" lon="103.356852"><ele>1875</ele><time>2026-08-03T01:12:44.000Z</time></trkpt>
        <trkpt lat="29.56598" lon="103.357554"><ele>1849</ele><time>2026-08-03T01:13:53.000Z</time></trkpt>
        <trkpt lat="29.566389" lon="103.358841"><ele>1807</ele><time>2026-08-03T01:15:26.000Z</time></trkpt>
        <trkpt lat="29.567131" lon="103.3594"><ele>1788</ele><time>2026-08-03T01:16:07.000Z</time></trkpt>
        <trkpt lat="29.567521" lon="103.359335"><ele>1776</ele><time>2026-08-03T01:16:29.000Z</time></trkpt>
        <trkpt lat="29.567902" lon="103.359554"><ele>1768</ele><time>2026-08-03T01:16:45.000Z</time></trkpt>
        <trkpt lat="29.56816" lon="103.359493"><ele>1767</ele><time>2026-08-03T01:17:03.000Z</time></trkpt>
        <trkpt lat="29.568262" lon="103.359669"><ele>1766</ele><time>2026-08-03T01:17:13.000Z</time></trkpt>
        <trkpt lat="29.568765" lon="103.359675"><ele>1765</ele><time>2026-08-03T01:17:47.000Z</time></trkpt>
        <trkpt lat="29.568869" lon="103.360242"><ele>1760</ele><time>2026-08-03T01:18:11.000Z</time></trkpt>
        <trkpt lat="29.570035" lon="103.361165"><ele>1737</ele><time>2026-08-03T01:19:01.000Z</time></trkpt>
        <trkpt lat="29.571628" lon="103.361865"><ele>1726</ele><time>2026-08-03T01:20:33.000Z</time></trkpt>
        <trkpt lat="29.572868" lon="103.361557"><ele>1686</ele><time>2026-08-03T01:21:55.000Z</time></trkpt>
        <trkpt lat="29.573985" lon="103.36248"><ele>1647</ele><time>2026-08-03T01:23:31.000Z</time></trkpt>
        <trkpt lat="29.574843" lon="103.362437"><ele>1641</ele><time>2026-08-03T01:24:17.000Z</time></trkpt>
        <trkpt lat="29.574911" lon="103.362704"><ele>1636</ele><time>2026-08-03T01:24:33.000Z</time></trkpt>
        <trkpt lat="29.574634" lon="103.362995"><ele>1625</ele><time>2026-08-03T01:25:04.000Z</time></trkpt>
        <trkpt lat="29.574645" lon="103.363699"><ele>1606</ele><time>2026-08-03T01:30:40.000Z</time></trkpt>
        <trkpt lat="29.574417" lon="103.363805"><ele>1592</ele><time>2026-08-03T01:31:06.000Z</time></trkpt>
        <trkpt lat="29.574488" lon="103.36416"><ele>1582</ele><time>2026-08-03T01:31:24.000Z</time></trkpt>
        <trkpt lat="29.57519" lon="103.365322"><ele>1535</ele><time>2026-08-03T01:33:17.000Z</time></trkpt>
        <trkpt lat="29.576192" lon="103.366068"><ele>1526</ele><time>2026-08-03T01:36:34.000Z</time></trkpt>
        <trkpt lat="29.576433" lon="103.366709"><ele>1540</ele><time>2026-08-03T01:38:03.000Z</time></trkpt>
        <trkpt lat="29.577288" lon="103.367679"><ele>1548</ele><time>2026-08-03T01:39:50.000Z</time></trkpt>
        <trkpt lat="29.576955" lon="103.36864"><ele>1518</ele><time>2026-08-03T01:41:17.000Z</time></trkpt>
        <trkpt lat="29.577007" lon="103.370127"><ele>1509</ele><time>2026-08-03T01:42:50.000Z</time></trkpt>
        <trkpt lat="29.578736" lon="103.372221"><ele>1458</ele><time>2026-08-03T01:45:16.000Z</time></trkpt>
        <trkpt lat="29.579774" lon="103.372961"><ele>1428</ele><time>2026-08-03T01:46:28.000Z</time></trkpt>
        <trkpt lat="29.580686" lon="103.373997"><ele>1393</ele><time>2026-08-03T01:47:52.000Z</time></trkpt>
        <trkpt lat="29.580727" lon="103.37539"><ele>1336</ele><time>2026-08-03T01:50:08.000Z</time></trkpt>
        <trkpt lat="29.580008" lon="103.375562"><ele>1306</ele><time>2026-08-03T01:51:20.000Z</time></trkpt>
        <trkpt lat="29.579879" lon="103.375909"><ele>1293</ele><time>2026-08-03T01:51:45.000Z</time></trkpt>
        <trkpt lat="29.580152" lon="103.376317"><ele>1292</ele><time>2026-08-03T01:52:16.000Z</time></trkpt>
        <trkpt lat="29.580986" lon="103.376188"><ele>1287</ele><time>2026-08-03T01:53:20.000Z</time></trkpt>
        <trkpt lat="29.58092" lon="103.376415"><ele>1277</ele><time>2026-08-03T01:53:46.000Z</time></trkpt>
        <trkpt lat="29.581105" lon="103.376511"><ele>1265</ele><time>2026-08-03T01:54:08.000Z</time></trkpt>
        <trkpt lat="29.581768" lon="103.376224"><ele>1221</ele><time>2026-08-03T01:55:55.000Z</time></trkpt>
        <trkpt lat="29.581791" lon="103.376533"><ele>1211</ele><time>2026-08-03T01:56:19.000Z</time></trkpt>
        <trkpt lat="29.582015" lon="103.376566"><ele>1196</ele><time>2026-08-03T01:56:51.000Z</time></trkpt>
        <trkpt lat="29.582423" lon="103.377454"><ele>1146</ele><time>2026-08-03T01:58:42.000Z</time></trkpt>
        <trkpt lat="29.582481" lon="103.378335"><ele>1121</ele><time>2026-08-03T01:59:57.000Z</time></trkpt>
        <trkpt lat="29.583021" lon="103.378849"><ele>1094</ele><time>2026-08-03T02:01:23.000Z</time></trkpt>
        <trkpt lat="29.582987" lon="103.379168"><ele>1088</ele><time>2026-08-03T02:01:47.000Z</time></trkpt>
        <trkpt lat="29.582688" lon="103.379452"><ele>1081</ele><time>2026-08-03T02:02:26.000Z</time></trkpt>
        <trkpt lat="29.582768" lon="103.379618"><ele>1079</ele><time>2026-08-03T02:02:42.000Z</time></trkpt>
        <trkpt lat="29.582994" lon="103.37946"><ele>1078</ele><time>2026-08-03T02:03:03.000Z</time></trkpt>
        <trkpt lat="29.582927" lon="103.379686"><ele>1070</ele><time>2026-08-03T02:03:24.000Z</time></trkpt>
        <trkpt lat="29.583105" lon="103.380013"><ele>1064</ele><time>2026-08-03T02:03:46.000Z</time></trkpt>
        <trkpt lat="29.582789" lon="103.380751"><ele>1060</ele><time>2026-08-03T02:04:36.000Z</time></trkpt>
        <trkpt lat="29.582784" lon="103.381152"><ele>1061</ele><time>2026-08-03T02:05:04.000Z</time></trkpt>
        <trkpt lat="29.582362" lon="103.381881"><ele>1060</ele><time>2026-08-03T02:06:04.000Z</time></trkpt>
        <trkpt lat="29.581969" lon="103.38219"><ele>1061</ele><time>2026-08-03T02:06:51.000Z</time></trkpt>
        <trkpt lat="29.582119" lon="103.382317"><ele>1056</ele><time>2026-08-03T02:08:58.000Z</time></trkpt>
        <trkpt lat="29.581908" lon="103.382769"><ele>1052</ele><time>2026-08-03T02:09:38.000Z</time></trkpt>
        <trkpt lat="29.581927" lon="103.383256"><ele>1042</ele><time>2026-08-03T02:10:16.000Z</time></trkpt>
        <trkpt lat="29.58143" lon="103.38385"><ele>1040</ele><time>2026-08-03T02:11:04.000Z</time></trkpt>
        <trkpt lat="29.581644" lon="103.384282"><ele>1027</ele><time>2026-08-03T02:11:50.000Z</time></trkpt>
        <trkpt lat="29.581488" lon="103.384365"><ele>1025</ele><time>2026-08-03T02:12:04.000Z</time></trkpt>
        <trkpt lat="29.580887" lon="103.384179"><ele>999</ele><time>2026-08-03T02:13:13.000Z</time></trkpt>
        <trkpt lat="29.580101" lon="103.38522"><ele>968</ele><time>2026-08-03T02:15:16.000Z</time></trkpt>
        <trkpt lat="29.579599" lon="103.385626"><ele>950</ele><time>2026-08-03T02:16:12.000Z</time></trkpt>
        <trkpt lat="29.579326" lon="103.386688"><ele>919</ele><time>2026-08-03T02:18:03.000Z</time></trkpt>
        <trkpt lat="29.578962" lon="103.387248"><ele>899</ele><time>2026-08-03T02:19:02.000Z</time></trkpt>
        <trkpt lat="29.578979" lon="103.388696"><ele>883</ele><time>2026-08-03T02:20:44.000Z</time></trkpt>
        <trkpt lat="29.57843" lon="103.388886"><ele>881</ele><time>2026-08-03T02:21:32.000Z</time></trkpt>
        <trkpt lat="29.578498" lon="103.389833"><ele>877</ele><time>2026-08-03T02:22:45.000Z</time></trkpt>
        <trkpt lat="29.577895" lon="103.391134"><ele>868</ele><time>2026-08-03T02:24:27.000Z</time></trkpt>
        <trkpt lat="29.577206" lon="103.390986"><ele>855</ele><time>2026-08-03T02:25:27.000Z</time></trkpt>
        <trkpt lat="29.576602" lon="103.391964"><ele>840</ele><time>2026-08-03T02:26:55.000Z</time></trkpt>
        <trkpt lat="29.575394" lon="103.391892"><ele>806</ele><time>2026-08-03T02:28:54.000Z</time></trkpt>
        <trkpt lat="29.574938" lon="103.392149"><ele>787</ele><time>2026-08-03T02:30:32.000Z</time></trkpt>
        <trkpt lat="29.574419" lon="103.392184"><ele>772</ele><time>2026-08-03T02:31:22.000Z</time></trkpt>
        <trkpt lat="29.574057" lon="103.392465"><ele>772</ele><time>2026-08-03T02:32:21.000Z</time></trkpt>
        <trkpt lat="29.574203" lon="103.392764"><ele>779</ele><time>2026-08-03T02:32:57.000Z</time></trkpt>
        <trkpt lat="29.574001" lon="103.393218"><ele>793</ele><time>2026-08-03T02:34:14.000Z</time></trkpt>
        <trkpt lat="29.573312" lon="103.393721"><ele>795</ele><time>2026-08-03T02:35:19.000Z</time></trkpt>
        <trkpt lat="29.573198" lon="103.393981"><ele>796</ele><time>2026-08-03T02:35:41.000Z</time></trkpt>
        <trkpt lat="29.573251" lon="103.39376"><ele>796</ele><time>2026-08-03T02:36:03.000Z</time></trkpt>
        <trkpt lat="29.573065" lon="103.393814"><ele>800</ele><time>2026-08-03T02:36:37.000Z</time></trkpt>
        <trkpt lat="29.572776" lon="103.394588"><ele>811</ele><time>2026-08-03T02:38:20.000Z</time></trkpt>
        <trkpt lat="29.572962" lon="103.394794"><ele>817</ele><time>2026-08-03T02:38:50.000Z</time></trkpt>
        <trkpt lat="29.572961" lon="103.395436"><ele>827</ele><time>2026-08-03T02:40:03.000Z</time></trkpt>
        <trkpt lat="29.572448" lon="103.39612"><ele>837</ele><time>2026-08-03T02:41:26.000Z</time></trkpt>
        <trkpt lat="29.57235" lon="103.396681"><ele>847</ele><time>2026-08-03T02:42:33.000Z</time></trkpt>
        <trkpt lat="29.571802" lon="103.396845"><ele>865</ele><time>2026-08-03T02:44:14.000Z</time></trkpt>
        <trkpt lat="29.571489" lon="103.397412"><ele>881</ele><time>2026-08-03T02:45:48.000Z</time></trkpt>
        <trkpt lat="29.571944" lon="103.400952"><ele>842</ele><time>2026-08-03T02:58:36.000Z</time></trkpt>
        <trkpt lat="29.57217" lon="103.400746"><ele>843</ele><time>2026-08-03T03:00:11.000Z</time></trkpt>
        <trkpt lat="29.572303" lon="103.400984"><ele>837</ele><time>2026-08-03T03:00:27.000Z</time></trkpt>
        <trkpt lat="29.572117" lon="103.401324"><ele>837</ele><time>2026-08-03T03:00:55.000Z</time></trkpt>
        <trkpt lat="29.571969" lon="103.401015"><ele>841</ele><time>2026-08-03T03:01:29.000Z</time></trkpt>
        <trkpt lat="29.572083" lon="103.401629"><ele>829</ele><time>2026-08-03T03:02:43.000Z</time></trkpt>
        <trkpt lat="29.57188" lon="103.401869"><ele>830</ele><time>2026-08-03T03:03:03.000Z</time></trkpt>
        <trkpt lat="29.571556" lon="103.40193"><ele>830</ele><time>2026-08-03T03:03:38.000Z</time></trkpt>
        <trkpt lat="29.57101" lon="103.402646"><ele>831</ele><time>2026-08-03T03:04:41.000Z</time></trkpt>
        <trkpt lat="29.570086" lon="103.402957"><ele>839</ele><time>2026-08-03T03:05:55.000Z</time></trkpt>
        <trkpt lat="29.569503" lon="103.403782"><ele>844</ele><time>2026-08-03T03:07:14.000Z</time></trkpt>
        <trkpt lat="29.568843" lon="103.403947"><ele>848</ele><time>2026-08-03T03:08:14.000Z</time></trkpt>
        <trkpt lat="29.568242" lon="103.404855"><ele>857</ele><time>2026-08-03T03:09:40.000Z</time></trkpt>
        <trkpt lat="29.567842" lon="103.405072"><ele>858</ele><time>2026-08-03T03:10:32.000Z</time></trkpt>
        <trkpt lat="29.566733" lon="103.405161"><ele>859</ele><time>2026-08-03T03:11:56.000Z</time></trkpt>
        <trkpt lat="29.567151" lon="103.405828"><ele>862</ele><time>2026-08-03T03:12:56.000Z</time></trkpt>
        <trkpt lat="29.566892" lon="103.406432"><ele>867</ele><time>2026-08-03T03:13:44.000Z</time></trkpt>
        <trkpt lat="29.566443" lon="103.406961"><ele>870</ele><time>2026-08-03T03:14:33.000Z</time></trkpt>
        <trkpt lat="29.566722" lon="103.408332"><ele>869</ele><time>2026-08-03T03:16:10.000Z</time></trkpt>
        <trkpt lat="29.567521" lon="103.40859"><ele>872</ele><time>2026-08-03T03:17:16.000Z</time></trkpt>
        <trkpt lat="29.567738" lon="103.408416"><ele>878</ele><time>2026-08-03T03:17:58.000Z</time></trkpt>
        <trkpt lat="29.568368" lon="103.409901"><ele>918</ele><time>2026-08-03T03:21:33.000Z</time></trkpt>
        <trkpt lat="29.568711" lon="103.410158"><ele>922</ele><time>2026-08-03T03:22:05.000Z</time></trkpt>
        <trkpt lat="29.568429" lon="103.411532"><ele>926</ele><time>2026-08-03T03:23:58.000Z</time></trkpt>
        <trkpt lat="29.569163" lon="103.41216"><ele>940</ele><time>2026-08-03T03:25:22.000Z</time></trkpt>
        <trkpt lat="29.569381" lon="103.412181"><ele>949</ele><time>2026-08-03T03:25:57.000Z</time></trkpt>
        <trkpt lat="29.569421" lon="103.41273"><ele>958</ele><time>2026-08-03T03:26:55.000Z</time></trkpt>
        <trkpt lat="29.569022" lon="103.413234"><ele>961</ele><time>2026-08-03T03:27:49.000Z</time></trkpt>
        <trkpt lat="29.569192" lon="103.413864"><ele>966</ele><time>2026-08-03T03:28:42.000Z</time></trkpt>
        <trkpt lat="29.569115" lon="103.414538"><ele>966</ele><time>2026-08-03T03:29:26.000Z</time></trkpt>
        <trkpt lat="29.569282" lon="103.414801"><ele>967</ele><time>2026-08-03T03:29:48.000Z</time></trkpt>
        <trkpt lat="29.569723" lon="103.414696"><ele>970</ele><time>2026-08-03T03:30:27.000Z</time></trkpt>
        <trkpt lat="29.569963" lon="103.415393"><ele>970</ele><time>2026-08-03T03:31:17.000Z</time></trkpt>
        <trkpt lat="29.57039" lon="103.415561"><ele>965</ele><time>2026-08-03T03:31:53.000Z</time></trkpt>
        <trkpt lat="29.570732" lon="103.416012"><ele>965</ele><time>2026-08-03T03:32:39.000Z</time></trkpt>
        <trkpt lat="29.570394" lon="103.416244"><ele>957</ele><time>2026-08-03T03:33:23.000Z</time></trkpt>
        <trkpt lat="29.570379" lon="103.417"><ele>960</ele><time>2026-08-03T03:34:13.000Z</time></trkpt>
        <trkpt lat="29.570121" lon="103.417092"><ele>961</ele><time>2026-08-03T03:34:35.000Z</time></trkpt>
        <trkpt lat="29.569771" lon="103.419225"><ele>967</ele><time>2026-08-03T03:37:12.000Z</time></trkpt>
        <trkpt lat="29.569533" lon="103.419608"><ele>968</ele><time>2026-08-03T03:37:43.000Z</time></trkpt>
        <trkpt lat="29.568604" lon="103.420092"><ele>966</ele><time>2026-08-03T03:39:11.000Z</time></trkpt>
        <trkpt lat="29.567976" lon="103.420146"><ele>940</ele><time>2026-08-03T03:40:36.000Z</time></trkpt>
        <trkpt lat="29.567341" lon="103.42047"><ele>916</ele><time>2026-08-03T03:42:14.000Z</time></trkpt>
        <trkpt lat="29.567083" lon="103.420428"><ele>907</ele><time>2026-08-03T03:42:45.000Z</time></trkpt>
        <trkpt lat="29.566983" lon="103.420053"><ele>901</ele><time>2026-08-03T03:43:15.000Z</time></trkpt>
        <trkpt lat="29.566709" lon="103.419868"><ele>889</ele><time>2026-08-03T03:44:03.000Z</time></trkpt>
        <trkpt lat="29.566179" lon="103.421157"><ele>888</ele><time>2026-08-03T03:45:46.000Z</time></trkpt>
        <trkpt lat="29.565668" lon="103.421105"><ele>879</ele><time>2026-08-03T03:46:27.000Z</time></trkpt>
        <trkpt lat="29.564907" lon="103.421453"><ele>859</ele><time>2026-08-03T03:48:01.000Z</time></trkpt>
        <trkpt lat="29.564636" lon="103.42108"><ele>850</ele><time>2026-08-03T03:48:38.000Z</time></trkpt>
        <trkpt lat="29.5643" lon="103.421408"><ele>843</ele><time>2026-08-03T03:49:12.000Z</time></trkpt>
        <trkpt lat="29.564508" lon="103.422027"><ele>823</ele><time>2026-08-03T03:50:39.000Z</time></trkpt>
        <trkpt lat="29.564417" lon="103.42369"><ele>779</ele><time>2026-08-03T03:53:28.000Z</time></trkpt>
        <trkpt lat="29.5647" lon="103.424333"><ele>759</ele><time>2026-08-03T03:54:35.000Z</time></trkpt>
        <trkpt lat="29.564828" lon="103.425219"><ele>742</ele><time>2026-08-03T03:55:49.000Z</time></trkpt>
        <trkpt lat="29.565246" lon="103.425723"><ele>743</ele><time>2026-08-03T03:56:33.000Z</time></trkpt>
        <trkpt lat="29.564953" lon="103.426858"><ele>702</ele><time>2026-08-03T03:58:52.000Z</time></trkpt>
        <trkpt lat="29.565274" lon="103.427142"><ele>699</ele><time>2026-08-03T03:59:21.000Z</time></trkpt>
        <trkpt lat="29.565475" lon="103.427807"><ele>691</ele><time>2026-08-03T03:59:56.000Z</time></trkpt>
        <trkpt lat="29.565251" lon="103.42823"><ele>688</ele><time>2026-08-03T04:00:24.000Z</time></trkpt>
        <trkpt lat="29.564862" lon="103.428501"><ele>684</ele><time>2026-08-03T04:00:58.000Z</time></trkpt>
        <trkpt lat="29.564866" lon="103.428944"><ele>682</ele><time>2026-08-03T04:01:52.000Z</time></trkpt>
        <trkpt lat="29.565303" lon="103.430031"><ele>678</ele><time>2026-08-03T04:03:05.000Z</time></trkpt>
        <trkpt lat="29.565391" lon="103.430824"><ele>671</ele><time>2026-08-03T04:03:56.000Z</time></trkpt>
        <trkpt lat="29.565589" lon="103.431062"><ele>668</ele><time>2026-08-03T04:04:16.000Z</time></trkpt>
        <trkpt lat="29.565334" lon="103.431974"><ele>657</ele><time>2026-08-03T04:05:19.000Z</time></trkpt>
        <trkpt lat="29.565762" lon="103.433346"><ele>644</ele><time>2026-08-03T04:06:56.000Z</time></trkpt>
        <trkpt lat="29.565769" lon="103.434258"><ele>637</ele><time>2026-08-03T04:07:54.000Z</time></trkpt>
        <trkpt lat="29.565581" lon="103.434436"><ele>635</ele><time>2026-08-03T04:08:08.000Z</time></trkpt>
        <trkpt lat="29.565598" lon="103.434705"><ele>634</ele><time>2026-08-03T04:08:25.000Z</time></trkpt>
        <trkpt lat="29.565967" lon="103.435128"><ele>626</ele><time>2026-08-03T04:09:04.000Z</time></trkpt>
        <trkpt lat="29.566467" lon="103.436693"><ele>618</ele><time>2026-08-03T04:10:50.000Z</time></trkpt>
        <trkpt lat="29.567547" lon="103.438434"><ele>602</ele><time>2026-08-03T04:13:05.000Z</time></trkpt>
        <trkpt lat="29.568855" lon="103.440064"><ele>591</ele><time>2026-08-03T04:15:21.000Z</time></trkpt>
        <trkpt lat="29.569126" lon="103.440948"><ele>583</ele><time>2026-08-03T04:16:16.000Z</time></trkpt>
        <trkpt lat="29.569798" lon="103.440958"><ele>588</ele><time>2026-08-03T04:17:03.000Z</time></trkpt>
        <trkpt lat="29.570496" lon="103.441438"><ele>590</ele><time>2026-08-03T04:18:06.000Z</time></trkpt>
      </trkseg>
  </trk>
</gpx>